Time;durP1;ratioP1;P1;durP2;ratioP2;P2;SDS_P1;SDS_P2;PMS_P1;PMS_P2;Temp;Humidity;BMP_temperature;BMP_pressure;BME280_temperature;BME280_humidity;BME280_pressure;Samples;Min_cycle;Max_cycle;Signal;HPM_P1;HPM_P2
2023/04/05 00:02:00;;;;;;;5.30;2.60;;;;;;;1.36;63.14;101806.34;5034058;28;20037;-80
2023/04/05 00:04:29;;;;;;;6.40;2.20;;;;;;;1.35;63.82;101808.00;5017719;28;20379;-80
2023/04/05 00:06:56;;;;;;;3.42;2.30;;;;;;;1.33;63.84;101804.50;5033823;28;20037;-80
2023/04/05 00:09:22;;;;;;;5.15;2.40;;;;;;;1.30;63.95;101802.66;5034127;28;20037;-80
2023/04/05 00:11:49;;;;;;;5.53;2.20;;;;;;;1.26;63.40;101812.75;5033859;28;20107;-80
2023/04/05 00:14:16;;;;;;;5.95;2.70;;;;;;;1.20;64.81;101815.91;5033972;28;20047;-81
2023/04/05 00:16:42;;;;;;;6.13;2.70;;;;;;;1.22;64.50;101805.66;5034328;28;20131;-80
2023/04/05 00:19:11;;;;;;;3.58;2.45;;;;;;;1.19;65.10;101808.06;5033419;28;20037;-80
2023/04/05 00:21:39;;;;;;;4.75;2.53;;;;;;;1.18;64.98;101803.75;5049286;28;20045;-80
2023/04/05 00:24:06;;;;;;;3.38;2.67;;;;;;;1.17;65.36;101797.69;5033631;28;20087;-80
2023/04/05 00:26:33;;;;;;;5.13;2.60;;;;;;;1.12;65.21;101806.91;5033201;28;20057;-80
2023/04/05 00:28:59;;;;;;;4.10;2.55;;;;;;;1.10;65.56;101799.09;5032888;28;20041;-80
2023/04/05 00:31:26;;;;;;;5.28;2.55;;;;;;;1.09;66.00;101804.19;5032932;28;20045;-80
2023/04/05 00:33:52;;;;;;;6.95;3.05;;;;;;;1.03;66.16;101803.88;5033961;28;20060;-80
2023/04/05 00:36:20;;;;;;;3.20;2.60;;;;;;;1.02;66.06;101799.53;5049868;28;20037;-80
2023/04/05 00:38:49;;;;;;;5.53;2.80;;;;;;;0.99;67.43;101797.69;5034391;28;20480;-80
2023/04/05 00:41:16;;;;;;;2.85;2.38;;;;;;;0.94;67.32;101810.38;5033448;28;20118;-80
2023/04/05 00:43:42;;;;;;;3.70;2.25;;;;;;;0.89;67.42;101808.38;5049822;28;20045;-80
2023/04/05 00:46:09;;;;;;;5.78;2.13;;;;;;;0.87;67.88;101799.69;5033185;28;20470;-80
2023/04/05 00:48:37;;;;;;;4.30;2.42;;;;;;;0.86;67.96;101797.91;5017177;28;20535;-80
2023/04/05 00:51:08;;;;;;;4.78;2.70;;;;;;;0.81;67.97;101792.53;5033366;28;20045;-80
2023/04/05 00:53:34;;;;;;;5.32;3.08;;;;;;;0.70;68.80;101804.88;5033644;28;20048;-81
2023/04/05 00:56:02;;;;;;;6.07;2.67;;;;;;;0.67;69.43;101801.28;5033709;28;20041;-80
2023/04/05 00:58:30;;;;;;;6.78;2.30;;;;;;;0.60;69.35;101800.06;5045601;28;20133;-79
2023/04/05 01:01:12;;;;;;;4.60;2.97;;;;;;;0.54;70.04;101805.81;5044714;28;20487;-80
2023/04/05 01:03:45;;;;;;;4.35;2.17;;;;;;;0.46;70.19;101801.97;5033435;28;20640;-79
2023/04/05 01:06:45;;;;;;;3.90;2.75;;;;;;;0.41;70.69;101801.72;5033160;28;20041;-80
2023/04/05 01:09:48;;;;;;;7.72;3.00;;;;;;;0.37;71.34;101794.66;5034022;28;20044;-80
2023/04/05 01:12:20;;;;;;;6.82;2.88;;;;;;;0.30;72.76;101789.97;5033423;28;20068;-79
2023/04/05 01:14:52;;;;;;;4.63;3.03;;;;;;;0.30;72.34;101787.41;5032883;28;20080;-80
2023/04/05 01:17:22;;;;;;;3.00;2.60;;;;;;;0.39;73.63;101787.00;5033365;28;20033;-80
2023/04/05 01:19:57;;;;;;;5.28;3.33;;;;;;;0.41;72.87;101785.38;5033251;28;20049;-80
2023/04/05 01:22:54;;;;;;;4.18;2.47;;;;;;;0.40;73.30;101794.78;5033170;28;20072;-80
2023/04/05 01:25:22;;;;;;;7.63;2.72;;;;;;;0.39;73.85;101780.16;5034082;28;20045;-79
2023/04/05 01:27:58;;;;;;;4.95;2.33;;;;;;;0.42;74.51;101785.47;5015882;28;20061;-79
2023/04/05 01:30:40;;;;;;;6.70;3.13;;;;;;;0.42;74.75;101782.00;5033334;28;20045;-80
2023/04/05 01:33:32;;;;;;;4.60;2.60;;;;;;;0.38;75.21;101780.97;5032613;28;20136;-80
2023/04/05 01:36:39;;;;;;;9.23;2.58;;;;;;;0.34;73.77;101781.63;5016569;28;20041;-80
2023/04/05 01:39:09;;;;;;;5.93;2.70;;;;;;;0.27;73.66;101776.94;5027536;28;20053;-79
2023/04/05 01:41:35;;;;;;;4.00;2.33;;;;;;;0.22;74.01;101775.81;5032297;28;20120;-80
2023/04/05 01:44:02;;;;;;;4.57;2.60;;;;;;;0.21;74.28;101774.97;5032235;28;20107;-80
2023/04/05 01:46:28;;;;;;;5.40;2.58;;;;;;;0.19;74.21;101779.13;5032889;28;20046;-80
2023/04/05 01:48:55;;;;;;;5.47;2.90;;;;;;;0.15;74.32;101778.06;5049476;28;20041;-80
2023/04/05 01:51:21;;;;;;;4.88;2.72;;;;;;;0.18;75.09;101779.94;5017913;28;20052;-80
2023/04/05 01:53:48;;;;;;;5.85;2.97;;;;;;;0.23;75.33;101772.47;5038882;28;20053;-80
2023/04/05 01:56:14;;;;;;;3.03;2.33;;;;;;;0.22;74.39;101770.69;5041813;28;20049;-80
2023/04/05 01:58:41;;;;;;;4.70;3.10;;;;;;;0.23;75.15;101770.75;5035947;28;20037;-80
2023/04/05 02:01:07;;;;;;;9.30;2.97;;;;;;;0.22;74.60;101770.69;5031788;28;20037;-80
2023/04/05 02:03:34;;;;;;;5.75;2.75;;;;;;;0.19;74.31;101775.69;5032055;28;20069;-80
2023/04/05 02:06:00;;;;;;;4.15;3.10;;;;;;;0.16;74.45;101771.25;5049157;28;20075;-80
2023/04/05 02:08:27;;;;;;;5.00;3.38;;;;;;;0.08;74.89;101768.28;5019455;28;20034;-81
2023/04/05 02:10:54;;;;;;;6.78;2.90;;;;;;;0.06;74.22;101767.31;5033120;28;20132;-80
2023/04/05 02:13:21;;;;;;;7.28;2.72;;;;;;;0.07;75.36;101775.94;5033275;28;20041;-80
2023/04/05 02:15:49;;;;;;;4.28;3.35;;;;;;;0.01;75.28;101770.47;5032557;28;20091;-80
2023/04/05 02:18:20;;;;;;;6.25;3.28;;;;;;;-0.04;75.62;101772.78;5032813;28;20206;-79
2023/04/05 02:20:49;;;;;;;6.32;2.78;;;;;;;-0.07;75.39;101773.50;5016403;28;20054;-80
2023/04/05 02:23:18;;;;;;;5.72;3.30;;;;;;;-0.13;75.35;101773.22;5032421;28;20095;-80
2023/04/05 02:25:44;;;;;;;13.40;3.45;;;;;;;-0.16;75.67;101770.44;5034381;28;20046;-79
2023/04/05 02:28:11;;;;;;;4.82;2.97;;;;;;;-0.20;76.09;101764.25;5036352;28;20047;-80
2023/04/05 02:30:37;;;;;;;6.90;2.97;;;;;;;-0.22;75.74;101765.88;5035979;28;20128;-80
2023/04/05 02:33:04;;;;;;;4.15;2.45;;;;;;;-0.21;75.48;101772.78;5019058;28;20044;-80
2023/04/05 02:35:30;;;;;;;9.95;4.55;;;;;;;-0.26;75.20;101763.03;5035916;28;20033;-79
2023/04/05 02:37:57;;;;;;;5.40;2.95;;;;;;;-0.28;76.19;101762.97;5035776;28;20045;-79
2023/04/05 02:40:24;;;;;;;6.63;2.85;;;;;;;-0.22;75.07;101764.97;5035871;28;20041;-80
2023/04/05 02:42:50;;;;;;;7.75;3.00;;;;;;;-0.22;74.96;101762.41;5059718;28;20037;-80
2023/04/05 02:45:17;;;;;;;5.47;3.28;;;;;;;-0.23;74.69;101763.22;5037973;28;20052;-80
2023/04/05 02:47:43;;;;;;;5.63;3.22;;;;;;;-0.22;75.23;101760.72;5052376;28;20045;-79
2023/04/05 02:50:10;;;;;;;5.28;3.10;;;;;;;-0.23;74.47;101761.53;5035101;28;20049;-80
2023/04/05 02:52:37;;;;;;;7.50;2.75;;;;;;;-0.25;74.01;101760.56;5035914;28;20033;-79
2023/04/05 02:55:06;;;;;;;5.93;3.17;;;;;;;-0.31;74.52;101756.75;5019257;28;20551;-80
2023/04/05 02:57:33;;;;;;;6.80;2.53;;;;;;;-0.31;74.65;101757.66;5019896;28;20128;-80
2023/04/05 02:59:59;;;;;;;7.93;2.80;;;;;;;-0.34;74.61;101752.34;5035742;28;20045;-80
2023/04/05 03:02:26;;;;;;;6.50;2.88;;;;;;;-0.37;74.91;101749.63;5035449;28;20034;-81
2023/04/05 03:04:53;;;;;;;3.30;2.13;;;;;;;-0.41;74.85;101748.56;5051274;28;20095;-81
2023/04/05 03:07:20;;;;;;;9.05;3.50;;;;;;;-0.42;75.98;101741.63;5019288;28;20049;-81
2023/04/05 03:09:47;;;;;;;3.13;2.83;;;;;;;-0.44;76.96;101744.94;5035723;28;20349;-80
2023/04/05 03:12:14;;;;;;;4.32;2.58;;;;;;;-0.48;77.69;101736.19;5034826;28;20432;-81
2023/04/05 03:14:41;;;;;;;7.07;2.95;;;;;;;-0.52;78.43;101731.69;5036238;28;20037;-81
2023/04/05 03:17:07;;;;;;;5.05;2.42;;;;;;;-0.55;78.65;101728.94;5030158;28;20053;-81
2023/04/05 03:19:34;;;;;;;10.43;4.28;;;;;;;-0.58;79.55;101728.78;5045104;28;20061;-81
2023/04/05 03:22:00;;;;;;;5.22;3.08;;;;;;;-0.63;78.83;101728.53;5035542;28;20037;-81
2023/04/05 03:24:27;;;;;;;7.90;3.35;;;;;;;-0.70;79.77;101724.72;5034908;28;20049;-81
2023/04/05 03:26:53;;;;;;;4.63;2.70;;;;;;;-0.74;80.15;101724.50;5035328;28;20463;-81
2023/04/05 03:29:20;;;;;;;10.13;2.85;;;;;;;-0.76;80.25;101732.09;5017831;28;20392;-80
2023/04/05 03:31:47;;;;;;;15.75;3.85;;;;;;;-0.75;81.53;101726.16;5017821;28;20041;-80
2023/04/05 03:34:13;;;;;;;8.60;3.33;;;;;;;-0.76;81.22;101731.25;5034541;28;20037;-81
2023/04/05 03:36:42;;;;;;;5.22;3.28;;;;;;;-0.80;81.88;101725.03;5034149;28;20129;-80
2023/04/05 03:39:11;;;;;;;9.57;4.75;;;;;;;-0.83;82.39;101722.31;5035112;28;20460;-80
2023/04/05 03:41:39;;;;;;;5.10;3.30;;;;;;;-0.87;83.06;101725.50;5034264;28;20060;-80
2023/04/05 03:44:07;;;;;;;4.88;3.38;;;;;;;-0.90;83.37;101722.75;5034807;28;20034;-80
2023/04/05 03:46:34;;;;;;;11.88;3.85;;;;;;;-0.92;84.57;101732.97;5023354;28;20041;-80
2023/04/05 03:49:01;;;;;;;10.65;3.65;;;;;;;-0.94;85.38;101726.88;5035550;28;20057;-79
2023/04/05 03:51:30;;;;;;;6.55;5.30;;;;;;;-0.92;85.90;101729.53;5035718;28;20044;-80
2023/04/05 03:53:59;;;;;;;7.82;3.50;;;;;;;-0.98;85.88;101736.88;5034803;28;20033;-81
2023/04/05 03:56:26;;;;;;;6.60;3.60;;;;;;;-0.98;85.98;101731.75;5034634;28;20056;-81
2023/04/05 03:58:53;;;;;;;8.68;3.78;;;;;;;-1.05;86.65;101728.81;5034906;28;20129;-81
2023/04/05 04:01:20;;;;;;;10.02;4.03;;;;;;;-1.07;86.69;101727.88;5034047;28;20065;-81
2023/04/05 04:03:46;;;;;;;12.73;4.60;;;;;;;-1.04;87.24;101734.88;5034375;28;20068;-80
2023/04/05 04:06:13;;;;;;;6.32;3.35;;;;;;;-1.09;87.14;101733.72;5018586;28;20042;-81
2023/04/05 04:08:40;;;;;;;6.93;4.05;;;;;;;-1.14;87.77;101732.56;5034116;28;20474;-80
2023/04/05 04:11:07;;;;;;;6.38;3.85;;;;;;;-1.19;88.25;101727.16;5034240;28;20091;-81
2023/04/05 04:13:33;;;;;;;8.88;4.78;;;;;;;-1.19;89.35;101729.75;5033569;28;20029;-80
2023/04/05 04:16:00;;;;;;;5.00;3.28;;;;;;;-1.20;89.54;101730.53;5034371;28;20045;-82
2023/04/05 04:18:26;;;;;;;9.05;4.05;;;;;;;-1.19;90.08;101738.34;5034036;28;20044;-79
2023/04/05 04:20:53;;;;;;;6.55;3.25;;;;;;;-1.20;89.82;101733.09;5033599;28;20049;-80
2023/04/05 04:23:23;;;;;;;6.18;3.42;;;;;;;-1.19;90.01;101729.75;5050248;28;20045;-80
2023/04/05 04:25:53;;;;;;;8.13;4.00;;;;;;;-1.17;89.80;101731.59;5033956;28;20201;-79
2023/04/05 04:28:23;;;;;;;7.00;4.05;;;;;;;-1.18;90.97;101732.38;5034032;28;20041;-80
2023/04/05 04:30:51;;;;;;;8.75;4.32;;;;;;;-1.19;90.19;101737.44;5050185;28;20048;-80
2023/04/05 04:33:20;;;;;;;9.45;3.55;;;;;;;-1.21;90.90;101729.66;5034124;28;20103;-79
2023/04/05 04:35:46;;;;;;;6.55;4.57;;;;;;;-1.23;91.64;101735.50;5035256;28;20097;-80
2023/04/05 04:38:17;;;;;;;5.90;3.88;;;;;;;-1.17;92.73;101735.88;5019420;28;20122;-80
2023/04/05 04:40:46;;;;;;;18.67;8.85;;;;;;;-1.09;93.11;101734.59;5033592;28;20084;-79
2023/04/05 04:43:15;;;;;;;9.73;4.57;;;;;;;-1.01;92.86;101729.88;5033471;28;20040;-80
2023/04/05 04:45:46;;;;;;;7.80;4.82;;;;;;;-0.95;92.06;101729.34;5033189;28;20037;-79
2023/04/05 04:48:15;;;;;;;5.78;4.68;;;;;;;-0.96;92.77;101733.59;5033447;28;20041;-79
2023/04/05 04:50:47;;;;;;;7.35;4.95;;;;;;;-0.94;92.74;101736.25;5016560;28;20045;-80
2023/04/05 04:53:16;;;;;;;6.07;4.40;;;;;;;-0.90;93.59;101745.88;5016097;28;20049;-81
2023/04/05 04:55:43;;;;;;;6.80;4.18;;;;;;;-0.92;92.48;101737.22;5032832;28;20415;-80
2023/04/05 04:58:11;;;;;;;11.73;5.35;;;;;;;-0.91;92.95;101731.25;5049600;28;20045;-80
2023/04/05 05:00:42;;;;;;;7.90;4.40;;;;;;;-0.94;92.53;101742.28;5032711;28;20037;-80
2023/04/05 05:03:12;;;;;;;8.85;5.82;;;;;;;-0.96;92.37;101741.31;5033284;28;20041;-79
2023/04/05 05:05:48;;;;;;;7.78;4.65;;;;;;;-0.98;92.66;101745.47;5033087;28;20136;-80
2023/04/05 05:08:15;;;;;;;7.47;3.72;;;;;;;-0.97;92.25;101743.81;5033284;28;20045;-80
2023/04/05 05:10:42;;;;;;;8.10;5.53;;;;;;;-0.96;93.24;101745.56;5016858;28;20375;-80
2023/04/05 05:13:10;;;;;;;10.93;5.05;;;;;;;-0.98;93.75;101745.47;5049288;28;20041;-80
2023/04/05 05:15:36;;;;;;;5.88;4.55;;;;;;;-0.97;93.62;101746.38;5032732;28;20041;-81
2023/04/05 05:18:04;;;;;;;17.50;6.13;;;;;;;-0.96;94.03;101743.00;5049690;28;20042;-81
2023/04/05 05:20:32;;;;;;;6.95;5.30;;;;;;;-0.97;94.84;101748.94;5034400;28;20072;-81
2023/04/05 05:23:02;;;;;;;8.45;4.45;;;;;;;-1.00;95.49;101742.81;5033783;28;20041;-81
2023/04/05 05:25:29;;;;;;;8.85;4.82;;;;;;;-1.00;96.12;101741.94;5017224;28;20045;-81
2023/04/05 05:27:56;;;;;;;7.00;4.55;;;;;;;-0.98;96.81;101744.59;5032737;28;20049;-81
2023/04/05 05:30:22;;;;;;;12.25;4.82;;;;;;;-0.94;97.57;101738.81;5033437;28;20042;-80
2023/04/05 05:32:49;;;;;;;9.43;4.47;;;;;;;-0.98;96.39;101739.44;5033201;28;20061;-81
2023/04/05 05:35:16;;;;;;;6.00;4.20;;;;;;;-1.00;96.99;101735.09;5038145;28;20033;-81
2023/04/05 05:37:42;;;;;;;9.45;5.10;;;;;;;-0.95;96.67;101739.59;5052418;28;20112;-80
2023/04/05 05:40:12;;;;;;;12.80;5.88;;;;;;;-0.95;96.12;101740.50;5034142;28;20197;-81
2023/04/05 05:42:38;;;;;;;12.10;5.18;;;;;;;-0.92;96.69;101745.81;5033685;28;20041;-80
2023/04/05 05:45:06;;;;;;;12.43;5.35;;;;;;;-0.86;96.15;101740.13;5032757;28;20464;-80
2023/04/05 05:47:33;;;;;;;9.23;4.90;;;;;;;-0.82;95.68;101744.66;5035338;28;20056;-81
2023/04/05 05:50:00;;;;;;;6.68;4.07;;;;;;;-0.78;95.58;101737.97;5033242;28;20037;-81
2023/04/05 05:52:27;;;;;;;12.13;4.43;;;;;;;-0.75;96.06;101730.44;5032884;28;20038;-80
2023/04/05 05:54:53;;;;;;;6.43;3.50;;;;;;;-0.71;95.58;101738.38;5032457;28;20045;-79
2023/04/05 05:57:20;;;;;;;8.82;4.45;;;;;;;-0.67;95.43;101726.59;5015790;28;20052;-80
2023/04/05 05:59:46;;;;;;;12.90;5.32;;;;;;;-0.62;94.85;101727.72;5034126;28;20052;-80
2023/04/05 06:02:13;;;;;;;10.05;4.50;;;;;;;-0.58;94.75;101732.22;5036171;28;20041;-80
2023/04/05 06:04:42;;;;;;;7.28;3.70;;;;;;;-0.49;93.95;101736.13;5022150;28;20042;-80
2023/04/05 06:07:09;;;;;;;10.52;4.85;;;;;;;-0.47;93.25;101731.91;5053927;28;20478;-80
2023/04/05 06:09:36;;;;;;;13.32;3.92;;;;;;;-0.44;93.14;101729.50;5037583;28;20456;-79
2023/04/05 06:12:03;;;;;;;4.82;3.90;;;;;;;-0.45;91.87;101725.19;5019846;28;20045;-80
2023/04/05 06:14:30;;;;;;;9.55;3.90;;;;;;;-0.43;92.26;101729.59;5036939;28;20368;-80
2023/04/05 06:16:57;;;;;;;17.08;5.45;;;;;;;-0.40;91.63;101726.31;5036519;28;20037;-80
2023/04/05 06:19:23;;;;;;;8.98;4.00;;;;;;;-0.36;91.23;101717.94;5019336;28;20455;-80
2023/04/05 06:21:50;;;;;;;8.38;4.90;;;;;;;-0.35;91.07;101728.31;5036756;28;20375;-80
2023/04/05 06:24:16;;;;;;;8.55;4.25;;;;;;;-0.30;91.24;101737.97;5052987;28;20037;-82
2023/04/05 06:26:44;;;;;;;10.93;6.18;;;;;;;-0.22;91.09;101727.28;5035364;28;20039;-82
2023/04/05 06:29:10;;;;;;;4.90;4.07;;;;;;;-0.15;89.43;101735.31;5019541;28;20041;-79
2023/04/05 06:31:37;;;;;;;5.93;3.97;;;;;;;-0.12;89.11;101735.47;5036233;28;20049;-80
2023/04/05 06:34:04;;;;;;;5.70;3.80;;;;;;;-0.07;88.95;101734.03;5035560;28;20071;-81
2023/04/05 06:36:32;;;;;;;9.00;3.97;;;;;;;-0.01;88.41;101731.78;5019414;28;20080;-80
2023/04/05 06:38:59;;;;;;;7.60;3.58;;;;;;;0.09;87.78;101736.59;5052285;28;20125;-80
2023/04/05 06:41:27;;;;;;;9.40;4.50;;;;;;;0.14;87.15;101734.22;5036140;28;20064;-80
2023/04/05 06:43:53;;;;;;;8.20;3.70;;;;;;;0.24;86.78;101731.31;5035778;28;20056;-80
2023/04/05 06:46:20;;;;;;;6.80;3.50;;;;;;;0.51;85.30;101735.19;5035382;28;20101;-79
2023/04/05 06:48:48;;;;;;;7.35;3.65;;;;;;;0.84;84.04;101732.53;5035770;28;20464;-80
2023/04/05 06:51:15;;;;;;;10.20;3.85;;;;;;;1.24;82.42;101732.69;5020036;28;20041;-80
2023/04/05 06:53:42;;;;;;;4.05;3.53;;;;;;;1.73;80.01;101734.03;5018910;28;20037;-80
2023/04/05 06:56:08;;;;;;;5.70;3.67;;;;;;;2.13;78.50;101735.78;5035475;28;20041;-81
2023/04/05 06:58:35;;;;;;;4.20;3.40;;;;;;;2.36;76.37;101730.75;5035197;28;20045;-80
2023/04/05 07:01:02;;;;;;;5.97;3.80;;;;;;;2.47;74.52;101728.59;5018489;28;20038;-81
2023/04/05 07:03:29;;;;;;;6.97;4.32;;;;;;;2.53;74.07;101728.84;5036558;28;20112;-81
2023/04/05 07:05:59;;;;;;;4.22;3.83;;;;;;;2.58;74.24;101722.16;5037092;28;20037;-79
2023/04/05 07:08:28;;;;;;;5.53;3.75;;;;;;;2.84;72.92;101724.03;5037428;28;20042;-80
2023/04/05 07:10:55;;;;;;;5.07;3.55;;;;;;;3.35;72.34;101715.66;5055569;28;20025;-80
2023/04/05 07:13:23;;;;;;;7.78;3.50;;;;;;;3.56;70.03;101720.72;5053497;28;20057;-80
2023/04/05 07:15:51;;;;;;;9.00;5.60;;;;;;;3.64;67.89;101715.03;5037325;28;20038;-81
2023/04/05 07:18:19;;;;;;;3.90;3.45;;;;;;;3.46;66.50;101714.34;5036047;28;20041;-81
2023/04/05 07:20:48;;;;;;;3.35;3.05;;;;;;;3.24;65.88;101710.94;5050986;28;20081;-80
2023/04/05 07:23:15;;;;;;;5.90;3.50;;;;;;;3.31;67.29;101705.19;5018305;28;20065;-80
2023/04/05 07:25:42;;;;;;;5.15;3.33;;;;;;;3.51;66.93;101715.41;5034585;28;20033;-81
2023/04/05 07:28:11;;;;;;;4.22;3.15;;;;;;;4.20;64.36;101711.81;5034915;28;20045;-81
2023/04/05 07:30:38;;;;;;;4.72;3.67;;;;;;;5.07;62.22;101705.09;5035161;28;20095;-80
2023/04/05 07:33:07;;;;;;;3.78;3.38;;;;;;;5.83;58.32;101701.19;5018598;28;20037;-81
2023/04/05 07:35:34;;;;;;;4.70;3.05;;;;;;;6.44;58.13;101702.84;5035232;28;20037;-80
2023/04/05 07:38:02;;;;;;;5.88;3.78;;;;;;;7.00;54.03;101690.25;5034649;28;20041;-82
2023/04/05 07:40:29;;;;;;;4.80;3.15;;;;;;;7.76;52.50;101695.31;5018697;28;20041;-81
2023/04/05 07:42:56;;;;;;;5.70;2.95;;;;;;;8.16;49.97;101690.84;5034546;28;20451;-81
2023/04/05 07:45:22;;;;;;;3.83;2.35;;;;;;;8.60;50.20;101685.53;5050663;28;20092;-80
2023/04/05 07:47:51;;;;;;;2.65;2.45;;;;;;;9.02;48.30;101688.75;5050666;28;20095;-80
2023/04/05 07:50:20;;;;;;;2.88;2.42;;;;;;;9.64;47.00;101686.91;5035228;28;20033;-80
2023/04/05 07:52:49;;;;;;;3.97;2.25;;;;;;;9.98;43.34;101689.03;5036377;28;20056;-80
2023/04/05 07:55:16;;;;;;;3.25;2.38;;;;;;;10.26;43.81;101683.19;5021403;28;20041;-80
2023/04/05 07:57:46;;;;;;;2.80;2.13;;;;;;;10.67;42.05;101699.25;5042864;28;20057;-81
2023/04/05 08:00:14;;;;;;;3.15;2.22;;;;;;;11.07;39.15;101687.28;5044088;28;20042;-79
2023/04/05 08:02:41;;;;;;;5.00;2.20;;;;;;;11.08;40.03;101696.00;5020424;28;20049;-80
2023/04/05 08:05:09;;;;;;;5.00;2.60;;;;;;;10.69;38.89;101701.03;5034291;28;20037;-81
2023/04/05 08:07:39;;;;;;;3.88;2.50;;;;;;;10.21;39.79;101697.09;5035159;28;20455;-81
2023/04/05 08:10:09;;;;;;;3.15;2.42;;;;;;;9.97;40.66;101702.97;5033989;28;20037;-82
2023/04/05 08:12:36;;;;;;;2.22;2.03;;;;;;;9.63;41.36;101700.84;5033831;28;20064;-80
2023/04/05 08:15:03;;;;;;;5.20;2.53;;;;;;;9.83;41.09;101702.81;5017957;28;20053;-80
2023/04/05 08:17:30;;;;;;;2.28;2.17;;;;;;;9.74;40.16;101701.84;5033356;28;20033;-82
2023/04/05 08:19:56;;;;;;;3.92;2.85;;;;;;;9.82;40.40;101698.47;5016677;28;20097;-81
2023/04/05 08:22:23;;;;;;;3.08;2.78;;;;;;;10.45;38.89;101692.97;5016097;28;20048;-80
2023/04/05 08:24:50;;;;;;;2.90;2.20;;;;;;;11.58;37.89;101691.91;5033369;28;20068;-80
2023/04/05 08:27:17;;;;;;;3.95;2.92;;;;;;;12.60;37.01;101680.69;5033482;28;20041;-80
2023/04/05 08:29:44;;;;;;;2.80;2.60;;;;;;;13.29;35.41;101672.63;5033600;28;20092;-81
2023/04/05 08:32:10;;;;;;;3.63;2.72;;;;;;;13.97;34.28;101667.03;5017157;28;20132;-81
2023/04/05 08:34:37;;;;;;;3.15;2.42;;;;;;;14.19;33.01;101674.78;5050645;28;20049;-81
2023/04/05 08:37:03;;;;;;;2.92;2.03;;;;;;;14.49;33.75;101671.03;5033404;28;20052;-80
2023/04/05 08:39:30;;;;;;;4.10;2.05;;;;;;;15.00;33.35;101672.31;5034099;28;20107;-81
2023/04/05 08:42:08;;;;;;;3.85;2.40;;;;;;;15.42;32.21;101675.31;5033566;28;20033;-80
2023/04/05 08:44:37;;;;;;;6.07;2.58;;;;;;;15.36;32.72;101671.00;5033389;28;20061;-81
2023/04/05 08:47:04;;;;;;;2.33;2.13;;;;;;;15.62;32.02;101676.81;5049780;28;20091;-80
2023/04/05 08:49:32;;;;;;;3.70;2.70;;;;;;;16.04;31.54;101675.38;5050115;28;20064;-81
2023/04/05 08:52:01;;;;;;;3.30;2.58;;;;;;;15.69;30.66;101665.31;5033410;28;20037;-81
2023/04/05 08:54:28;;;;;;;2.28;2.00;;;;;;;15.54;30.67;101663.75;5017007;28;20168;-81
2023/04/05 08:56:56;;;;;;;2.35;2.03;;;;;;;15.99;29.40;101660.50;5033048;28;20041;-81
2023/04/05 08:59:23;;;;;;;1.60;1.50;;;;;;;16.07;26.77;101670.94;5034043;28;20099;-82
2023/04/05 09:01:51;;;;;;;1.95;1.42;;;;;;;16.53;27.74;101662.25;5033419;28;20040;-81
2023/04/05 09:04:23;;;;;;;3.00;1.70;;;;;;;17.25;27.08;101667.09;5034891;28;20442;-83
2023/04/05 09:06:51;;;;;;;3.53;1.75;;;;;;;17.16;26.85;101660.22;5018168;28;20079;-81
2023/04/05 09:09:20;;;;;;;3.03;1.63;;;;;;;17.05;26.31;101662.22;5034216;28;20060;-80
2023/04/05 09:11:47;;;;;;;1.90;1.55;;;;;;;16.81;25.94;101659.13;5033540;28;20053;-81
2023/04/05 09:14:15;;;;;;;2.97;1.63;;;;;;;16.38;26.19;101661.59;5033645;28;20087;-82
2023/04/05 09:16:42;;;;;;;5.22;1.80;;;;;;;15.90;27.25;101660.66;5034226;28;20080;-82
2023/04/05 09:19:11;;;;;;;4.13;2.38;;;;;;;16.79;26.59;101666.19;5034139;28;20080;-83
2023/04/05 09:22:07;;;;;;;2.80;1.50;;;;;;;17.18;24.33;101654.00;5034539;28;20125;-81
2023/04/05 09:24:43;;;;;;;2.47;1.35;;;;;;;16.60;25.63;101655.09;5051721;28;20117;-82
2023/04/05 09:27:18;;;;;;;5.10;2.08;;;;;;;16.94;25.31;101655.34;5040587;28;20041;-82
2023/04/05 09:29:50;;;;;;;2.17;1.70;;;;;;;17.36;25.29;101654.50;5042147;28;20045;-82
2023/04/05 09:32:19;;;;;;;2.55;1.38;;;;;;;18.35;24.65;101650.50;5038767;28;20038;-82
2023/04/05 09:34:46;;;;;;;5.40;1.13;;;;;;;18.62;22.64;101650.66;5031499;28;20037;-82
2023/04/05 09:37:18;;;;;;;1.05;1.02;;;;;;;19.31;22.16;101650.53;5048555;28;20091;-81
2023/04/05 09:39:48;;;;;;;1.88;0.93;;;;;;;19.99;21.29;101655.56;5031142;28;20132;-81
2023/04/05 09:42:16;;;;;;;1.33;1.02;;;;;;;20.17;20.66;101633.69;5047950;28;20068;-83
2023/04/05 09:45:01;;;;;;;2.35;1.58;;;;;;;20.80;19.59;101646.63;5043563;28;20049;-82
2023/04/05 09:47:33;;;;;;;1.73;1.63;;;;;;;20.01;21.01;101653.72;5031056;28;20067;-81
2023/04/05 09:50:15;;;;;;;1.27;1.15;;;;;;;18.55;21.06;101641.13;5054359;28;20208;-82
2023/04/05 09:52:43;;;;;;;1.90;1.77;;;;;;;18.68;20.68;101636.34;5051193;28;20116;-82
2023/04/05 09:55:10;;;;;;;2.28;2.10;;;;;;;19.49;19.96;101640.28;5044839;28;20068;-82
2023/04/05 09:57:39;;;;;;;2.88;2.08;;;;;;;20.40;19.64;101629.41;5023433;28;20073;-82
2023/04/05 10:00:18;;;;;;;3.08;2.00;;;;;;;18.44;20.45;101641.41;5038448;28;20180;-81
2023/04/05 10:02:46;;;;;;;2.00;1.67;;;;;;;15.70;22.88;101645.94;5021690;28;20127;-81
2023/04/05 10:05:14;;;;;;;2.15;1.33;;;;;;;15.92;23.66;101643.00;5038537;28;20502;-81
2023/04/05 10:07:42;;;;;;;2.22;2.13;;;;;;;17.52;22.40;101633.88;5038268;28;20037;-82
2023/04/05 10:10:14;;;;;;;2.47;1.90;;;;;;;19.11;20.95;101621.94;5056066;28;20474;-81
2023/04/05 10:12:43;;;;;;;1.60;1.53;;;;;;;20.14;20.60;101624.94;5046679;28;20029;-82
2023/04/05 10:15:13;;;;;;;1.65;1.23;;;;;;;21.21;19.46;101615.84;5054948;28;20083;-82
2023/04/05 10:17:59;;;;;;;3.20;1.80;;;;;;;21.17;18.72;101616.91;5039844;28;20037;-82
2023/04/05 10:20:28;;;;;;;1.50;1.40;;;;;;;19.07;20.95;101620.25;5042984;28;20440;-82
2023/04/05 10:23:09;;;;;;;1.90;1.80;;;;;;;17.39;21.84;101620.06;5054285;28;20033;-81
2023/04/05 10:25:53;;;;;;;1.92;1.65;;;;;;;17.20;22.49;101617.78;5044643;28;20051;-81
2023/04/05 10:28:47;;;;;;;1.50;1.40;;;;;;;19.08;21.19;101611.38;5041701;28;20057;-82
2023/04/05 10:31:26;;;;;;;3.45;1.67;;;;;;;20.75;19.71;101605.13;5053581;28;20057;-81
2023/04/05 10:34:07;;;;;;;1.63;1.50;;;;;;;20.46;19.39;101601.72;5038668;28;20056;-82
2023/04/05 10:36:45;;;;;;;1.70;1.60;;;;;;;21.35;18.67;101602.00;5053521;28;20391;-82
2023/04/05 10:39:17;;;;;;;1.50;1.10;;;;;;;21.49;19.50;101592.53;5051865;28;20076;-82
2023/04/05 10:41:50;;;;;;;2.22;1.60;;;;;;;21.23;18.46;101588.25;5035792;28;20045;-82
2023/04/05 10:44:17;;;;;;;1.30;1.20;;;;;;;20.60;19.08;101604.75;5051813;28;20123;-81
2023/04/05 10:46:45;;;;;;;1.33;1.25;;;;;;;20.86;19.33;101591.44;5051247;28;20090;-81
2023/04/05 10:49:34;;;;;;;1.58;1.20;;;;;;;21.36;18.62;101590.44;5036065;28;20193;-82
2023/04/05 10:52:02;;;;;;;1.45;1.35;;;;;;;21.32;18.38;101584.38;5052306;28;20212;-82
2023/04/05 10:54:35;;;;;;;3.25;2.08;;;;;;;21.89;18.23;101579.44;5036380;28;20030;-82
2023/04/05 10:57:05;;;;;;;2.25;1.30;;;;;;;22.35;18.27;101594.41;5055160;28;20451;-82
2023/04/05 10:59:33;;;;;;;1.48;1.33;;;;;;;23.07;17.61;101585.81;5039177;28;20053;-82
2023/04/05 11:02:01;;;;;;;2.05;1.85;;;;;;;23.89;17.47;101571.22;5056930;28;20053;-83
2023/04/05 11:04:27;;;;;;;1.35;1.35;;;;;;;23.92;17.03;101575.56;5071414;28;20056;-82
2023/04/05 11:07:18;;;;;;;2.05;1.88;;;;;;;24.17;16.51;101574.31;5056776;28;20049;-82
2023/04/05 11:10:05;;;;;;;2.08;1.77;;;;;;;24.87;15.85;101566.19;5056307;28;20037;-83
2023/04/05 11:12:51;;;;;;;2.35;2.15;;;;;;;24.54;15.55;101572.41;5045426;28;20045;-83
2023/04/05 11:15:31;;;;;;;2.53;1.88;;;;;;;24.06;16.49;101573.06;5037712;28;20084;-82
2023/04/05 11:18:16;;;;;;;3.17;2.00;;;;;;;24.22;16.04;101561.56;5052350;28;20045;-80
2023/04/05 11:21:02;;;;;;;2.28;1.92;;;;;;;24.23;16.66;101574.00;5036292;28;20464;-82
2023/04/05 11:23:28;;;;;;;1.80;1.67;;;;;;;23.30;16.60;101559.88;5034788;28;20048;-82
2023/04/05 11:26:05;;;;;;;2.47;1.67;;;;;;;23.62;17.10;101560.09;5051729;28;20045;-81
2023/04/05 11:28:39;;;;;;;2.72;1.75;;;;;;;23.41;16.81;101554.88;5035011;28;20040;-81
2023/04/05 11:31:21;;;;;;;2.67;2.28;;;;;;;23.48;16.83;101558.13;5051551;28;20045;-81
2023/04/05 11:33:47;;;;;;;1.95;1.63;;;;;;;24.26;16.78;101547.97;5034755;28;20131;-81
2023/04/05 11:36:35;;;;;;;3.40;1.80;;;;;;;25.42;15.30;101544.38;5035609;28;20038;-82
2023/04/05 11:39:20;;;;;;;1.48;1.38;;;;;;;25.34;14.96;101543.03;5035569;28;20132;-82